createdAt,value
2023-03-26T00:00:55.855Z,3.10
2023-03-26T00:03:24.343Z,3.70
2023-03-26T00:06:03.468Z,5.70
2023-03-26T00:08:32.024Z,3.30
2023-03-26T00:11:01.846Z,3.47
2023-03-26T00:13:30.530Z,3.20
2023-03-26T00:15:58.949Z,4.80
2023-03-26T00:18:30.768Z,3.63
2023-03-26T00:20:59.537Z,3.60
2023-03-26T00:23:28.279Z,5.57
2023-03-26T00:25:57.164Z,5.37
2023-03-26T00:28:27.377Z,5.40
2023-03-26T00:30:59.614Z,4.30
2023-03-26T00:33:28.278Z,3.77
2023-03-26T00:35:58.903Z,3.33
2023-03-26T00:38:27.811Z,4.93
2023-03-26T00:40:56.630Z,3.87
2023-03-26T00:43:26.526Z,7.20
2023-03-26T00:45:56.794Z,7.67
2023-03-26T00:48:37.803Z,10.57
2023-03-26T00:51:10.538Z,8.37
2023-03-26T00:53:39.128Z,4.43
2023-03-26T00:56:08.150Z,4.50
2023-03-26T00:58:37.193Z,4.70
2023-03-26T01:01:08.619Z,4.97
2023-03-26T01:03:39.245Z,7.13
2023-03-26T01:06:09.064Z,10.47
2023-03-26T01:08:39.331Z,7.50
2023-03-26T01:11:14.275Z,8.60
2023-03-26T01:13:43.954Z,10.60
2023-03-26T01:16:20.253Z,7.37
2023-03-26T01:18:49.490Z,11.70
2023-03-26T01:21:22.777Z,9.93
2023-03-26T01:23:53.209Z,9.30
2023-03-26T01:26:28.294Z,7.50
2023-03-26T01:28:58.836Z,6.77
2023-03-26T01:31:37.184Z,11.77
2023-03-26T01:34:12.478Z,7.63
2023-03-26T01:36:44.661Z,11.50
2023-03-26T01:39:18.721Z,11.70
2023-03-26T01:41:50.333Z,14.80
2023-03-26T01:44:22.340Z,11.20
2023-03-26T01:46:51.786Z,11.37
2023-03-26T01:49:20.855Z,5.93
2023-03-26T01:51:49.475Z,12.37
2023-03-26T01:54:21.144Z,4.20
2023-03-26T01:56:57.788Z,12.83
2023-03-26T01:59:50.334Z,9.63
2023-03-26T02:02:23.541Z,20.13
2023-03-26T02:04:54.363Z,22.40
2023-03-26T02:07:24.692Z,9.00
2023-03-26T02:09:57.393Z,14.47
2023-03-26T02:12:27.560Z,10.77
2023-03-26T02:14:55.890Z,17.50
2023-03-26T02:17:24.707Z,14.17
2023-03-26T02:19:54.190Z,17.93
2023-03-26T02:22:22.564Z,11.60
2023-03-26T02:24:51.114Z,14.20
2023-03-26T02:27:19.471Z,17.17
2023-03-26T02:29:50.313Z,10.63
2023-03-26T02:32:20.151Z,13.00
2023-03-26T02:34:51.376Z,8.00
2023-03-26T02:37:19.848Z,17.50
2023-03-26T02:39:48.229Z,11.97
2023-03-26T02:42:17.145Z,15.50
2023-03-26T02:44:45.726Z,16.87
2023-03-26T02:47:15.457Z,9.57
2023-03-26T02:49:43.733Z,12.23
2023-03-26T02:52:12.088Z,13.97
2023-03-26T02:54:40.967Z,16.20
2023-03-26T02:57:09.371Z,20.20
2023-03-26T02:59:37.805Z,14.40
2023-03-26T03:02:06.343Z,12.23
2023-03-26T03:04:36.174Z,15.50
2023-03-26T03:07:04.534Z,15.43
2023-03-26T03:09:32.883Z,13.43
2023-03-26T03:12:01.226Z,11.10
2023-03-26T03:14:29.580Z,16.43
2023-03-26T03:16:59.090Z,13.67
2023-03-26T03:19:27.304Z,15.80
2023-03-26T03:21:57.008Z,14.50
2023-03-26T03:24:27.043Z,14.10
2023-03-26T03:26:56.854Z,16.33
2023-03-26T03:29:25.248Z,24.97
2023-03-26T03:31:53.588Z,21.70
2023-03-26T03:34:21.931Z,15.97
2023-03-26T03:36:50.171Z,20.53
2023-03-26T03:39:19.853Z,19.30
2023-03-26T03:41:49.285Z,22.57
2023-03-26T03:44:17.870Z,16.17
2023-03-26T03:46:46.276Z,17.90
2023-03-26T03:49:14.594Z,16.33
2023-03-26T03:51:43.180Z,22.80
2023-03-26T03:54:11.515Z,24.10
2023-03-26T03:56:41.329Z,21.90
2023-03-26T03:59:10.297Z,22.90
2023-03-26T04:01:38.789Z,18.80
2023-03-26T04:04:06.938Z,19.47
2023-03-26T04:06:35.374Z,10.83
2023-03-26T04:09:03.685Z,16.27
2023-03-26T04:11:31.796Z,16.10
2023-03-26T04:14:01.469Z,28.67
2023-03-26T04:16:30.008Z,18.97
2023-03-26T04:18:58.418Z,18.40
2023-03-26T04:21:30.396Z,13.87
2023-03-26T04:23:58.772Z,16.90
2023-03-26T04:26:30.790Z,15.83
2023-03-26T04:29:02.608Z,21.60
2023-03-26T04:31:31.380Z,13.27
2023-03-26T04:34:01.842Z,17.23
2023-03-26T04:36:32.192Z,23.83
2023-03-26T04:39:05.283Z,22.67
2023-03-26T04:41:33.500Z,14.90
2023-03-26T04:44:03.385Z,21.23
2023-03-26T04:46:33.700Z,13.37
2023-03-26T04:49:02.861Z,13.23
2023-03-26T04:51:35.381Z,12.93
2023-03-26T04:54:03.634Z,11.50
2023-03-26T04:56:35.360Z,23.20
2023-03-26T04:59:05.108Z,8.60
2023-03-26T05:01:37.855Z,17.53
2023-03-26T05:04:06.600Z,10.47
2023-03-26T05:06:35.357Z,9.07
2023-03-26T05:09:04.066Z,12.53
2023-03-26T05:11:32.469Z,16.00
2023-03-26T05:14:00.595Z,14.07
2023-03-26T05:16:31.794Z,13.57
2023-03-26T05:19:00.328Z,7.90
2023-03-26T05:21:28.637Z,9.63
2023-03-26T05:23:57.137Z,8.93
2023-03-26T05:26:26.046Z,13.60
2023-03-26T05:28:54.376Z,9.60
2023-03-26T05:31:23.034Z,8.23
2023-03-26T05:33:52.872Z,14.07
2023-03-26T05:36:21.329Z,14.47
2023-03-26T05:38:50.457Z,20.97
2023-03-26T05:41:18.943Z,15.80
2023-03-26T05:43:47.905Z,18.80
2023-03-26T05:46:16.772Z,8.50
2023-03-26T05:48:45.752Z,11.47
2023-03-26T05:51:16.575Z,9.60
2023-03-26T05:53:45.254Z,19.10
2023-03-26T05:56:13.614Z,13.83
2023-03-26T05:58:42.099Z,10.50
2023-03-26T06:01:16.540Z,18.13
2023-03-26T06:03:46.204Z,10.63
2023-03-26T06:06:17.119Z,15.57
2023-03-26T06:08:46.900Z,14.83
2023-03-26T06:11:15.556Z,16.57
2023-03-26T06:13:44.392Z,7.57
2023-03-26T06:16:21.086Z,16.37
2023-03-26T06:18:56.949Z,18.87
2023-03-26T06:21:28.034Z,8.87
2023-03-26T06:23:56.833Z,12.77
2023-03-26T06:26:25.845Z,13.10
2023-03-26T06:28:54.248Z,15.13
2023-03-26T06:31:22.785Z,10.47
2023-03-26T06:33:51.379Z,11.83
2023-03-26T06:36:19.763Z,6.90
2023-03-26T06:38:49.541Z,9.13
2023-03-26T06:41:17.976Z,21.60
2023-03-26T06:43:46.374Z,15.67
2023-03-26T06:46:14.895Z,21.07
2023-03-26T06:48:43.389Z,20.57
2023-03-26T06:51:11.933Z,18.73
2023-03-26T06:53:40.335Z,14.23
2023-03-26T06:56:10.898Z,13.97
2023-03-26T06:58:39.296Z,10.40
2023-03-26T07:01:08.033Z,15.07
2023-03-26T07:03:36.402Z,12.13
2023-03-26T07:06:04.839Z,17.23
2023-03-26T07:08:33.289Z,20.47
2023-03-26T07:11:01.655Z,13.97
2023-03-26T07:13:31.143Z,16.90
2023-03-26T07:15:59.716Z,11.63
2023-03-26T07:18:28.135Z,16.57
2023-03-26T07:20:56.851Z,11.13
2023-03-26T07:23:25.790Z,7.83
2023-03-26T07:25:54.511Z,14.90
2023-03-26T07:28:25.743Z,12.97
2023-03-26T07:31:07.853Z,15.47
2023-03-26T07:33:43.121Z,10.27
2023-03-26T07:36:18.176Z,8.73
2023-03-26T07:38:54.125Z,9.40
2023-03-26T07:41:26.295Z,15.10
2023-03-26T07:44:09.011Z,17.77
2023-03-26T07:46:41.575Z,14.73
2023-03-26T07:49:12.521Z,14.53
2023-03-26T07:51:41.208Z,15.60
2023-03-26T07:54:11.806Z,11.13
2023-03-26T07:56:44.115Z,9.00
2023-03-26T07:59:20.735Z,9.50
2023-03-26T08:02:08.859Z,9.53
2023-03-26T08:05:04.232Z,12.17
2023-03-26T08:07:41.389Z,17.90
2023-03-26T08:10:17.149Z,9.70
2023-03-26T08:12:50.411Z,12.20
2023-03-26T08:15:29.261Z,8.40
2023-03-26T08:18:03.434Z,11.13
2023-03-26T08:20:41.618Z,6.00
2023-03-26T08:23:15.649Z,13.67
2023-03-26T08:25:49.953Z,8.70
2023-03-26T08:28:30.579Z,9.73
2023-03-26T08:31:02.942Z,17.23
2023-03-26T08:33:35.972Z,7.60
2023-03-26T08:36:06.007Z,10.03
2023-03-26T08:38:34.373Z,10.37
2023-03-26T08:41:37.947Z,9.30
2023-03-26T08:44:16.397Z,17.80
2023-03-26T08:47:03.338Z,6.57
2023-03-26T08:49:55.720Z,11.43
2023-03-26T08:53:05.581Z,6.50
2023-03-26T08:55:40.564Z,14.67
2023-03-26T08:58:42.197Z,8.43
2023-03-26T09:01:23.456Z,6.97
2023-03-26T09:03:58.574Z,13.97
2023-03-26T09:06:43.692Z,8.73
2023-03-26T09:09:22.021Z,6.03
2023-03-26T09:12:04.235Z,11.37
2023-03-26T09:14:42.581Z,6.33
2023-03-26T09:17:24.157Z,6.57
2023-03-26T09:20:09.833Z,4.63
2023-03-26T09:22:54.363Z,10.30
2023-03-26T09:25:46.829Z,3.97
2023-03-26T09:28:36.424Z,3.83
2023-03-26T09:31:16.914Z,5.43
2023-03-26T09:33:57.154Z,6.30
2023-03-26T09:36:42.133Z,5.67
2023-03-26T09:39:17.755Z,4.07
2023-03-26T09:41:53.270Z,5.63
2023-03-26T09:44:29.354Z,6.30
2023-03-26T09:47:06.717Z,3.97
2023-03-26T09:49:43.350Z,6.17
2023-03-26T09:52:43.716Z,4.50
2023-03-26T09:55:26.066Z,9.27
2023-03-26T09:58:13.340Z,5.23
2023-03-26T10:00:46.464Z,8.10
2023-03-26T10:03:20.872Z,4.23
2023-03-26T10:05:58.039Z,4.13
2023-03-26T10:08:39.342Z,5.27
2023-03-26T10:11:18.816Z,4.23
2023-03-26T10:13:54.495Z,4.43
2023-03-26T10:16:24.990Z,4.93
2023-03-26T10:18:58.567Z,5.23
2023-03-26T10:21:31.768Z,7.93
2023-03-26T10:24:08.851Z,3.77
2023-03-26T10:26:42.945Z,8.83
2023-03-26T10:29:44.147Z,5.80
2023-03-26T10:32:23.758Z,4.60
2023-03-26T10:34:57.303Z,5.63
2023-03-26T10:37:30.807Z,3.70
2023-03-26T10:40:14.754Z,4.03
2023-03-26T10:43:02.224Z,4.10
2023-03-26T10:45:35.484Z,4.33
2023-03-26T10:48:13.149Z,4.60
2023-03-26T10:50:59.096Z,4.23
2023-03-26T10:53:31.446Z,4.70
2023-03-26T10:56:02.478Z,6.03
2023-03-26T10:58:48.730Z,4.87
2023-03-26T11:01:23.393Z,4.30
2023-03-26T11:03:54.138Z,11.17
2023-03-26T11:06:38.845Z,7.27
2023-03-26T11:09:19.849Z,7.63
2023-03-26T11:11:54.093Z,6.40
2023-03-26T11:14:34.780Z,5.73
2023-03-26T11:17:14.950Z,8.50
2023-03-26T11:20:08.849Z,4.67
2023-03-26T11:22:46.332Z,5.30
2023-03-26T11:25:22.401Z,4.50
2023-03-26T11:28:00.507Z,6.27
2023-03-26T11:30:39.115Z,7.20
2023-03-26T11:33:09.855Z,4.20
2023-03-26T11:35:41.768Z,5.63
2023-03-26T11:38:15.371Z,4.17
2023-03-26T11:40:48.844Z,5.97
2023-03-26T11:43:17.621Z,4.20
2023-03-26T11:45:48.237Z,3.83
2023-03-26T11:48:21.757Z,5.77
2023-03-26T11:50:52.650Z,4.37
2023-03-26T11:53:23.301Z,5.87
2023-03-26T11:56:00.934Z,5.17
2023-03-26T11:58:34.094Z,4.83
2023-03-26T12:01:14.478Z,4.53
2023-03-26T12:03:42.934Z,8.70
2023-03-26T12:06:27.532Z,10.93
2023-03-26T12:08:56.968Z,4.07
2023-03-26T12:11:28.322Z,4.50
2023-03-26T12:14:00.357Z,7.07
2023-03-26T12:16:31.519Z,4.90
2023-03-26T12:19:01.222Z,8.00
2023-03-26T12:21:29.569Z,5.83
2023-03-26T12:23:59.940Z,5.10
2023-03-26T12:26:39.569Z,6.40
2023-03-26T12:29:12.422Z,5.90
2023-03-26T12:31:50.622Z,4.80
2023-03-26T12:34:20.093Z,4.47
2023-03-26T12:36:55.857Z,4.07
2023-03-26T12:40:08.705Z,4.00
2023-03-26T12:44:54.891Z,3.83
2023-03-26T12:45:16.602Z,3.77
2023-03-26T12:48:01.203Z,4.57
2023-03-26T12:50:38.712Z,5.33
2023-03-26T12:53:15.438Z,4.10
2023-03-26T12:55:51.160Z,7.30
2023-03-26T12:58:34.350Z,3.90
2023-03-26T13:01:11.262Z,5.17
2023-03-26T13:03:56.768Z,4.33
2023-03-26T13:06:31.572Z,4.43
2023-03-26T13:09:52.830Z,4.23
2023-03-26T13:12:27.083Z,3.90
2023-03-26T13:15:00.355Z,3.57
2023-03-26T13:17:37.069Z,4.10
2023-03-26T13:20:15.767Z,4.20
2023-03-26T13:22:55.384Z,4.10
2023-03-26T13:25:33.200Z,4.80
2023-03-26T13:28:05.196Z,4.03
2023-03-26T13:30:40.236Z,4.20
2023-03-26T13:33:19.605Z,4.40
2023-03-26T13:36:06.527Z,4.80
2023-03-26T13:38:58.931Z,4.23
2023-03-26T13:41:39.288Z,4.10
2023-03-26T13:44:14.346Z,4.73
2023-03-26T13:46:44.423Z,4.23
2023-03-26T13:49:15.545Z,3.77
2023-03-26T13:51:50.562Z,4.17
2023-03-26T13:54:25.904Z,3.77
2023-03-26T13:56:57.601Z,4.07
2023-03-26T13:59:28.873Z,3.53
2023-03-26T14:02:02.999Z,3.73
2023-03-26T14:04:32.608Z,3.77
2023-03-26T14:07:05.548Z,3.70
2023-03-26T14:09:38.071Z,3.50
2023-03-26T14:12:23.730Z,3.63
2023-03-26T14:14:56.151Z,3.33
2023-03-26T14:17:29.523Z,4.50
2023-03-26T14:20:12.754Z,3.80
2023-03-26T14:22:47.489Z,3.80
2023-03-26T14:25:21.470Z,3.40
2023-03-26T14:28:07.482Z,3.63
2023-03-26T14:30:48.139Z,3.23
2023-03-26T14:33:30.404Z,3.60
2023-03-26T14:36:01.274Z,3.57
2023-03-26T14:38:59.241Z,3.87
2023-03-26T14:41:30.935Z,3.63
2023-03-26T14:44:14.399Z,3.63
2023-03-26T14:46:57.151Z,3.97
2023-03-26T14:49:40.430Z,3.23
2023-03-26T14:52:15.136Z,3.60
2023-03-26T14:54:47.746Z,3.40
2023-03-26T14:57:33.774Z,3.10
2023-03-26T15:00:32.323Z,3.90
2023-03-26T15:03:54.440Z,3.50
2023-03-26T15:06:46.770Z,3.60
2023-03-26T15:09:50.397Z,4.33
2023-03-26T15:12:25.146Z,4.30
2023-03-26T15:15:27.082Z,5.07
2023-03-26T15:18:22.015Z,4.13
2023-03-26T15:21:14.881Z,3.87
2023-03-26T15:24:04.031Z,6.07
2023-03-26T15:27:09.004Z,4.20
2023-03-26T15:29:52.245Z,4.13
2023-03-26T15:32:57.062Z,3.57
2023-03-26T15:36:09.086Z,3.00
2023-03-26T15:38:52.674Z,2.90
2023-03-26T15:41:25.189Z,4.13
2023-03-26T15:44:25.578Z,3.60
2023-03-26T15:46:59.104Z,3.43
2023-03-26T15:49:32.158Z,4.80
2023-03-26T15:52:06.885Z,4.50
2023-03-26T15:54:39.508Z,4.73
2023-03-26T15:57:17.138Z,4.53
2023-03-26T16:00:00.430Z,3.83
2023-03-26T16:02:41.563Z,4.47
2023-03-26T16:05:26.428Z,4.93
2023-03-26T16:08:03.112Z,5.53
2023-03-26T16:10:35.960Z,4.73
2023-03-26T16:13:25.378Z,5.70
2023-03-26T16:15:58.053Z,4.80
2023-03-26T16:18:45.008Z,5.73
2023-03-26T16:21:37.075Z,9.20
2023-03-26T16:24:24.496Z,12.07
2023-03-26T16:27:27.060Z,14.70
2023-03-26T16:30:20.143Z,12.03
2023-03-26T16:32:50.328Z,12.67
2023-03-26T16:35:35.190Z,13.87
2023-03-26T16:38:11.517Z,13.20
2023-03-26T16:40:52.258Z,15.83
2023-03-26T16:43:28.111Z,20.53
2023-03-26T16:45:59.359Z,15.33
2023-03-26T16:48:31.448Z,13.23
2023-03-26T16:51:05.465Z,13.63
2023-03-26T16:53:42.664Z,16.77
2023-03-26T16:56:16.802Z,17.43
2023-03-26T16:58:56.228Z,18.33
2023-03-26T17:01:30.362Z,14.03
2023-03-26T17:04:01.741Z,19.83
2023-03-26T17:07:04.530Z,12.07
2023-03-26T17:09:39.600Z,13.40
2023-03-26T17:12:14.866Z,14.13
2023-03-26T17:14:56.439Z,17.67
2023-03-26T17:17:48.623Z,15.43
2023-03-26T17:20:21.588Z,10.03
2023-03-26T17:22:54.328Z,9.50
2023-03-26T17:25:30.657Z,10.63
2023-03-26T17:28:07.862Z,14.40
2023-03-26T17:30:46.229Z,16.00
2023-03-26T17:33:23.301Z,14.10
2023-03-26T17:35:52.574Z,11.53
2023-03-26T17:38:45.224Z,17.67
2023-03-26T17:41:17.870Z,15.60
2023-03-26T17:43:47.132Z,19.73
2023-03-26T17:46:30.434Z,28.10
2023-03-26T17:49:02.446Z,12.07
2023-03-26T17:51:40.239Z,14.67
2023-03-26T17:54:09.603Z,19.20
2023-03-26T17:56:40.751Z,18.97
2023-03-26T17:59:11.236Z,11.67
2023-03-26T18:01:42.124Z,12.67
2023-03-26T18:04:14.044Z,8.37
2023-03-26T18:06:50.028Z,10.90
2023-03-26T18:09:27.284Z,9.07
2023-03-26T18:12:04.189Z,13.77
2023-03-26T18:14:50.474Z,12.23
2023-03-26T18:17:19.325Z,12.13
2023-03-26T18:19:49.316Z,13.47
2023-03-26T18:22:20.093Z,13.97
2023-03-26T18:24:48.836Z,16.83
2023-03-26T18:27:20.115Z,13.17
2023-03-26T18:30:02.117Z,10.90
2023-03-26T18:32:33.555Z,11.07
2023-03-26T18:35:04.473Z,11.80
2023-03-26T18:37:34.472Z,5.70
2023-03-26T18:40:12.554Z,9.97
2023-03-26T18:42:43.381Z,9.50
2023-03-26T18:45:16.929Z,7.60
2023-03-26T18:47:47.638Z,7.43
2023-03-26T18:50:17.786Z,15.63
2023-03-26T18:52:46.383Z,11.33
2023-03-26T18:55:15.668Z,8.40
2023-03-26T18:57:45.635Z,13.77
2023-03-26T19:00:20.696Z,7.27
2023-03-26T19:02:50.790Z,14.13
2023-03-26T19:05:20.194Z,8.30
2023-03-26T19:07:48.990Z,8.87
2023-03-26T19:10:21.256Z,13.23
2023-03-26T19:12:57.794Z,6.30
2023-03-26T19:15:26.880Z,5.90
2023-03-26T19:17:58.464Z,4.97
2023-03-26T19:20:28.669Z,5.97
2023-03-26T19:22:58.249Z,14.53
2023-03-26T19:25:28.316Z,5.30
2023-03-26T19:27:58.213Z,11.80
2023-03-26T19:30:30.837Z,7.70
2023-03-26T19:33:12.878Z,11.00
2023-03-26T19:35:42.588Z,13.37
2023-03-26T19:38:23.324Z,6.73
2023-03-26T19:40:52.411Z,11.70
2023-03-26T19:43:22.415Z,6.47
2023-03-26T19:45:59.939Z,8.23
2023-03-26T19:48:45.867Z,8.07
2023-03-26T19:51:20.428Z,9.97
2023-03-26T19:53:49.748Z,16.43
2023-03-26T19:56:18.714Z,6.93
2023-03-26T19:58:48.600Z,11.17
2023-03-26T20:01:19.367Z,11.17
2023-03-26T20:03:49.013Z,9.70
2023-03-26T20:06:18.713Z,5.17
2023-03-26T20:08:47.339Z,5.67
2023-03-26T20:11:17.094Z,6.93
2023-03-26T20:13:45.472Z,5.77
2023-03-26T20:16:18.284Z,6.87
2023-03-26T20:18:47.718Z,4.90
2023-03-26T20:21:16.057Z,5.23
2023-03-26T20:23:44.764Z,4.27
2023-03-26T20:26:13.631Z,20.43
2023-03-26T20:28:48.287Z,6.00
2023-03-26T20:31:21.951Z,5.33
2023-03-26T20:33:51.967Z,8.80
2023-03-26T20:36:33.229Z,9.50
2023-03-26T20:39:05.833Z,20.47
2023-03-26T20:41:35.671Z,6.43
2023-03-26T20:44:05.903Z,6.53
2023-03-26T20:46:35.665Z,6.83
2023-03-26T20:49:03.997Z,13.30
2023-03-26T20:51:32.407Z,9.70
2023-03-26T20:54:01.100Z,6.63
2023-03-26T20:56:29.546Z,12.83
2023-03-26T21:01:30.348Z,2.47
2023-03-26T21:04:00.243Z,15.67
2023-03-26T21:06:28.637Z,10.77
2023-03-26T21:08:57.296Z,10.27
2023-03-26T21:11:30.947Z,10.80
2023-03-26T21:14:02.065Z,5.17
2023-03-26T21:16:30.741Z,4.13
2023-03-26T21:19:00.837Z,7.10
2023-03-26T21:21:36.892Z,7.77
2023-03-26T21:24:09.302Z,5.13
2023-03-26T21:26:43.641Z,7.67
2023-03-26T21:29:12.848Z,5.90
2023-03-26T21:31:41.615Z,4.33
2023-03-26T21:34:13.303Z,4.83
2023-03-26T21:36:42.030Z,3.10
2023-03-26T21:39:11.523Z,10.90
2023-03-26T21:41:43.690Z,8.37
2023-03-26T21:44:14.160Z,3.20
2023-03-26T21:46:43.205Z,7.70
2023-03-26T21:49:13.732Z,3.80
2023-03-26T21:51:42.790Z,2.27
2023-03-26T21:54:19.222Z,7.27
2023-03-26T21:56:49.928Z,2.93
2023-03-26T21:59:23.713Z,7.90
2023-03-26T22:01:56.935Z,3.77
2023-03-26T22:04:30.554Z,4.47
2023-03-26T22:07:02.617Z,6.80
2023-03-26T22:09:36.346Z,6.13
2023-03-26T22:12:05.435Z,1.30
2023-03-26T22:14:34.442Z,3.50
2023-03-26T22:17:02.817Z,15.20
2023-03-26T22:19:32.335Z,9.80
2023-03-26T22:22:00.908Z,5.27
2023-03-26T22:24:29.343Z,1.00
2023-03-26T22:26:57.672Z,2.27
2023-03-26T22:29:26.045Z,1.87
2023-03-26T22:31:54.394Z,3.03
2023-03-26T22:34:23.179Z,2.17
2023-03-26T22:36:53.345Z,3.77
2023-03-26T22:39:21.657Z,3.10
2023-03-26T22:41:50.495Z,2.63
2023-03-26T22:44:20.483Z,7.60
2023-03-26T22:46:51.461Z,4.07
2023-03-26T22:49:20.162Z,4.17
2023-03-26T22:51:50.166Z,1.60
2023-03-26T22:54:19.574Z,5.83
2023-03-26T22:56:48.210Z,3.27
2023-03-26T22:59:16.747Z,6.83
2023-03-26T23:01:45.812Z,9.10
2023-03-26T23:04:31.437Z,4.83
2023-03-26T23:07:00.729Z,5.67
2023-03-26T23:09:30.576Z,6.17
2023-03-26T23:11:59.022Z,9.37
2023-03-26T23:14:28.654Z,6.03
2023-03-26T23:16:57.227Z,7.07
2023-03-26T23:19:25.768Z,3.07
2023-03-26T23:21:54.279Z,5.97
2023-03-26T23:24:22.592Z,8.33
2023-03-26T23:26:52.298Z,4.57
2023-03-26T23:29:20.656Z,4.43
2023-03-26T23:31:49.078Z,5.27
2023-03-26T23:34:18.574Z,1.47
2023-03-26T23:36:47.044Z,2.80
2023-03-26T23:39:16.014Z,13.73
2023-03-26T23:41:44.555Z,3.10
2023-03-26T23:44:16.093Z,3.37
2023-03-26T23:46:44.448Z,1.43
2023-03-26T23:49:13.135Z,2.17
2023-03-26T23:51:42.122Z,13.80
2023-03-26T23:54:11.664Z,5.20
2023-03-26T23:56:40.064Z,4.87
2023-03-26T23:59:08.486Z,2.80
